Time;durP1;ratioP1;P1;durP2;ratioP2;P2;SDS_P1;SDS_P2;PMS_P1;PMS_P2;Temp;Humidity;BMP_temperature;BMP_pressure;BME280_temperature;BME280_humidity;BME280_pressure;Samples;Min_cycle;Max_cycle;Signal;HPM_P1;HPM_P2
2023/05/25 00:00:10;;;;;;;;;;;;;;;19.13;24.38;101176.56;6185689;23;19912;-60
2023/05/25 00:02:36;;;;;;;;;;;;;;;19.06;24.13;101183.19;6185372;23;19908;-60
2023/05/25 00:05:01;;;;;;;;;;;;;;;19.04;24.13;101188.03;6185330;23;19918;-61
2023/05/25 00:07:27;;;;;;;;;;;;;;;19.01;24.21;101185.75;6185728;23;19915;-60
2023/05/25 00:09:52;;;;;;;;;;;;;;;19.02;24.20;101190.13;6185434;23;20011;-61
2023/05/25 00:12:17;;;;;;;;;;;;;;;18.94;24.11;101186.72;6184948;23;19994;-60
2023/05/25 00:14:42;;;;;;;;;;;;;;;18.86;24.50;101191.63;6184845;23;19932;-59
2023/05/25 00:17:09;;;;;;;;;;;;;;;18.81;24.56;101194.22;6158675;23;20325;-59
2023/05/25 00:19:35;;;;;;;;;;;;;;;18.67;24.53;101190.81;6185333;23;19908;-60
2023/05/25 00:22:03;;;;;;;;;;;;;;;18.72;24.38;101197.22;6185570;23;19919;-60
2023/05/25 00:24:29;;;;;;;;;;;;;;;18.70;24.32;101212.97;6185517;23;19915;-61
2023/05/25 00:26:55;;;;;;;;;;;;;;;18.72;24.64;101209.97;6185112;23;19912;-61
2023/05/25 00:29:21;;;;;;;;;;;;;;;18.60;25.08;101196.34;6185234;23;19919;-61
2023/05/25 00:31:46;;;;;;;;;;;;;;;18.39;25.18;101205.81;6185168;23;20314;-59
2023/05/25 00:34:11;;;;;;;;;;;;;;;18.50;24.94;101205.03;6185458;23;20202;-61
2023/05/25 00:36:36;;;;;;;;;;;;;;;18.60;24.97;101214.56;6184963;23;20007;-61
2023/05/25 00:39:02;;;;;;;;;;;;;;;18.68;24.74;101214.22;6184187;23;20299;-60
2023/05/25 00:41:28;;;;;;;;;;;;;;;18.60;24.92;101215.38;6185167;23;19908;-59
2023/05/25 00:43:53;;;;;;;;;;;;;;;18.54;25.00;101225.28;6185042;23;19909;-60
2023/05/25 00:46:18;;;;;;;;;;;;;;;18.46;25.14;101235.63;6184969;23;19908;-60
2023/05/25 00:48:44;;;;;;;;;;;;;;;18.43;25.10;101223.34;6158939;23;19919;-60
2023/05/25 00:51:12;;;;;;;;;;;;;;;18.21;24.97;101233.81;6185460;23;19992;-61
2023/05/25 00:53:38;;;;;;;;;;;;;;;18.25;25.20;101229.59;6184849;23;19909;-61
2023/05/25 00:56:06;;;;;;;;;;;;;;;18.28;25.24;101236.47;6184951;23;19914;-58
2023/05/25 00:58:33;;;;;;;;;;;;;;;18.16;25.45;101237.22;6184916;23;19916;-60
2023/05/25 01:01:00;;;;;;;;;;;;;;;18.03;25.50;101236.53;6184968;23;19908;-59
2023/05/25 01:03:28;;;;;;;;;;;;;;;17.98;25.23;101240.75;6184972;23;20238;-60
2023/05/25 01:05:54;;;;;;;;;;;;;;;17.94;25.45;101246.84;6185061;23;19908;-58
2023/05/25 01:08:21;;;;;;;;;;;;;;;17.90;25.45;101232.88;6184981;23;20282;-59
2023/05/25 01:10:50;;;;;;;;;;;;;;;17.83;25.88;101231.22;6185012;23;19912;-59
2023/05/25 01:13:16;;;;;;;;;;;;;;;17.73;25.72;101227.13;6184576;23;20328;-60
2023/05/25 01:15:42;;;;;;;;;;;;;;;17.82;25.66;101235.03;6186747;23;19916;-60
2023/05/25 01:18:08;;;;;;;;;;;;;;;17.70;25.73;101222.16;6187209;23;19954;-61
2023/05/25 01:20:34;;;;;;;;;;;;;;;17.77;25.70;101230.25;6187256;23;19931;-60
2023/05/25 01:23:03;;;;;;;;;;;;;;;17.74;25.80;101233.41;6186963;23;20302;-61
2023/05/25 01:25:29;;;;;;;;;;;;;;;17.72;25.96;101230.91;6187230;23;19915;-57
2023/05/25 01:27:58;;;;;;;;;;;;;;;17.78;25.76;101234.63;6160354;23;19912;-60
2023/05/25 01:30:24;;;;;;;;;;;;;;;17.80;25.70;101238.78;6186489;23;19915;-61
2023/05/25 01:32:53;;;;;;;;;;;;;;;17.79;25.35;101239.00;6186727;23;19912;-60
2023/05/25 01:35:20;;;;;;;;;;;;;;;17.84;25.21;101241.06;6186351;23;20234;-61
2023/05/25 01:37:45;;;;;;;;;;;;;;;17.79;25.54;101231.69;6185223;23;20211;-60
2023/05/25 01:40:13;;;;;;;;;;;;;;;17.72;25.53;101236.34;6186621;23;19912;-60
2023/05/25 01:42:38;;;;;;;;;;;;;;;17.72;25.42;101233.63;6159971;23;19908;-60
2023/05/25 01:45:04;;;;;;;;;;;;;;;17.69;25.56;101234.06;6186622;23;20214;-60
2023/05/25 01:47:55;;;;;;;;;;;;;;;17.71;25.57;101237.41;6186719;23;19912;-60
2023/05/25 01:50:32;;;;;;;;;;;;;;;17.68;25.38;101237.88;6186998;23;19908;-60
2023/05/25 01:53:14;;;;;;;;;;;;;;;17.59;25.60;101242.72;6186817;23;19972;-61
2023/05/25 01:55:46;;;;;;;;;;;;;;;17.45;25.83;101240.34;6186877;23;20012;-60
2023/05/25 01:58:13;;;;;;;;;;;;;;;17.31;25.70;101228.72;6186787;23;20223;-59
2023/05/25 02:00:39;;;;;;;;;;;;;;;17.32;25.79;101241.25;6186560;23;20303;-60
2023/05/25 02:03:04;;;;;;;;;;;;;;;17.34;25.81;101239.16;6186629;23;19908;-59
2023/05/25 02:05:29;;;;;;;;;;;;;;;17.12;25.76;101253.06;6186406;23;19912;-60
2023/05/25 02:07:55;;;;;;;;;;;;;;;17.22;25.87;101256.16;6185956;23;20357;-61
2023/05/25 02:10:20;;;;;;;;;;;;;;;17.26;25.97;101253.00;6185968;23;19909;-60
2023/05/25 02:12:45;;;;;;;;;;;;;;;17.17;25.94;101260.56;6185989;23;19983;-62
2023/05/25 02:15:11;;;;;;;;;;;;;;;17.16;26.01;101262.44;6186139;23;20307;-61
2023/05/25 02:17:36;;;;;;;;;;;;;;;17.25;25.70;101259.47;6186611;23;19908;-58
2023/05/25 02:20:03;;;;;;;;;;;;;;;17.20;25.68;101262.84;6186350;23;19915;-60
2023/05/25 02:22:28;;;;;;;;;;;;;;;17.17;25.88;101258.66;6186133;23;19915;-60
2023/05/25 02:24:54;;;;;;;;;;;;;;;16.98;25.45;101265.06;6186344;23;19912;-60
2023/05/25 02:27:19;;;;;;;;;;;;;;;17.00;25.66;101257.53;6186074;23;20000;-61
2023/05/25 02:29:46;;;;;;;;;;;;;;;16.92;25.59;101264.03;6186321;23;20207;-60
2023/05/25 02:32:12;;;;;;;;;;;;;;;16.90;26.17;101259.88;6185823;23;19912;-59
2023/05/25 02:34:37;;;;;;;;;;;;;;;16.90;25.71;101260.72;6185909;23;19916;-60
2023/05/25 02:37:02;;;;;;;;;;;;;;;16.97;25.66;101255.25;6186003;23;19943;-60
2023/05/25 02:39:28;;;;;;;;;;;;;;;16.93;25.44;101265.69;6185100;23;19908;-60
2023/05/25 02:41:53;;;;;;;;;;;;;;;16.91;25.87;101264.25;6186208;23;20320;-59
2023/05/25 02:44:19;;;;;;;;;;;;;;;16.94;25.56;101274.69;6186194;23;20004;-62
2023/05/25 02:46:44;;;;;;;;;;;;;;;16.98;25.94;101276.72;6185552;23;19939;-58
2023/05/25 02:49:10;;;;;;;;;;;;;;;17.06;25.82;101283.78;6185945;23;19912;-60
2023/05/25 02:51:35;;;;;;;;;;;;;;;17.08;25.70;101286.28;6186201;23;19908;-60
2023/05/25 02:54:01;;;;;;;;;;;;;;;16.99;25.99;101283.84;6186222;23;19931;-60
2023/05/25 02:56:27;;;;;;;;;;;;;;;17.05;26.04;101284.84;6186020;23;19908;-60
2023/05/25 02:58:52;;;;;;;;;;;;;;;17.11;25.67;101277.72;6185744;23;19931;-60
2023/05/25 03:01:17;;;;;;;;;;;;;;;17.13;25.64;101276.44;6185706;23;19962;-60
2023/05/25 03:03:46;;;;;;;;;;;;;;;17.11;25.75;101275.00;6185798;23;19916;-60
2023/05/25 03:06:12;;;;;;;;;;;;;;;16.95;25.86;101277.16;6185662;23;19909;-59
2023/05/25 03:08:38;;;;;;;;;;;;;;;16.99;26.06;101270.28;6185493;23;19919;-61
2023/05/25 03:11:03;;;;;;;;;;;;;;;16.93;25.99;101262.97;6185946;23;19908;-61
2023/05/25 03:13:28;;;;;;;;;;;;;;;16.91;26.21;101261.53;6185950;23;19908;-60
2023/05/25 03:15:54;;;;;;;;;;;;;;;16.93;25.96;101260.25;6185785;23;20302;-60
2023/05/25 03:18:19;;;;;;;;;;;;;;;16.90;26.03;101260.72;6186003;23;19962;-63
2023/05/25 03:20:44;;;;;;;;;;;;;;;16.91;25.82;101266.97;6134672;23;19909;-61
2023/05/25 03:23:10;;;;;;;;;;;;;;;16.95;25.91;101270.91;6159588;23;20393;-59
2023/05/25 03:25:35;;;;;;;;;;;;;;;16.94;25.99;101269.25;6185639;23;19908;-61
2023/05/25 03:28:00;;;;;;;;;;;;;;;16.97;25.86;101285.09;6185456;23;19916;-61
2023/05/25 03:30:26;;;;;;;;;;;;;;;17.01;26.13;101283.59;6185951;23;20003;-60
2023/05/25 03:32:51;;;;;;;;;;;;;;;17.01;26.02;101295.31;6185514;23;19994;-61
2023/05/25 03:35:17;;;;;;;;;;;;;;;17.00;25.92;101290.09;6185754;23;19909;-60
2023/05/25 03:37:42;;;;;;;;;;;;;;;17.00;26.30;101295.53;6184101;23;19924;-60
2023/05/25 03:40:08;;;;;;;;;;;;;;;17.00;26.11;101285.50;6186003;23;19908;-61
2023/05/25 03:42:34;;;;;;;;;;;;;;;17.01;25.96;101278.16;6185438;23;19908;-60
2023/05/25 03:44:59;;;;;;;;;;;;;;;16.95;26.19;101279.03;6185710;23;19916;-61
2023/05/25 03:47:24;;;;;;;;;;;;;;;16.85;26.19;101281.41;6185243;23;19939;-60
2023/05/25 03:49:50;;;;;;;;;;;;;;;16.83;26.34;101287.88;6185679;23;19908;-62
2023/05/25 03:52:15;;;;;;;;;;;;;;;16.89;25.96;101285.34;6185191;23;19909;-60
2023/05/25 03:54:40;;;;;;;;;;;;;;;16.98;26.03;101292.19;6184883;23;20392;-58
2023/05/25 03:57:06;;;;;;;;;;;;;;;17.01;25.91;101289.88;6185275;23;19915;-61
2023/05/25 03:59:31;;;;;;;;;;;;;;;17.05;26.12;101293.00;6185501;23;19994;-59
2023/05/25 04:01:56;;;;;;;;;;;;;;;17.10;25.90;101286.91;6185312;23;19915;-60
2023/05/25 04:04:21;;;;;;;;;;;;;;;16.97;26.03;101287.81;6185716;23;19916;-60
2023/05/25 04:06:47;;;;;;;;;;;;;;;16.79;26.22;101291.16;6185316;23;19908;-60
2023/05/25 04:09:15;;;;;;;;;;;;;;;16.69;26.37;101272.66;6185480;23;19917;-60
2023/05/25 04:11:41;;;;;;;;;;;;;;;16.54;26.17;101289.19;6185758;23;19909;-60
2023/05/25 04:14:06;;;;;;;;;;;;;;;16.34;26.35;101283.78;6185345;23;19931;-59
2023/05/25 04:16:31;;;;;;;;;;;;;;;16.53;26.78;101284.81;6185486;23;19912;-57
2023/05/25 04:18:57;;;;;;;;;;;;;;;16.50;26.41;101287.13;6185592;23;20222;-59
2023/05/25 04:21:22;;;;;;;;;;;;;;;16.54;26.65;101277.50;6184909;23;19935;-60
2023/05/25 04:23:48;;;;;;;;;;;;;;;16.53;26.55;101287.53;6184784;23;20223;-60
2023/05/25 04:26:14;;;;;;;;;;;;;;;16.56;26.67;101292.50;6158266;23;19939;-57
2023/05/25 04:28:39;;;;;;;;;;;;;;;16.55;26.52;101290.84;6184582;23;19939;-59
2023/05/25 04:31:05;;;;;;;;;;;;;;;16.59;26.54;101286.66;6184824;23;19909;-60
2023/05/25 04:33:33;;;;;;;;;;;;;;;16.54;26.74;101294.59;6184901;23;19912;-59
2023/05/25 04:35:58;;;;;;;;;;;;;;;16.47;26.62;101288.34;6184491;23;19923;-59
2023/05/25 04:38:24;;;;;;;;;;;;;;;16.57;26.61;101304.22;6183930;23;19908;-58
2023/05/25 04:40:50;;;;;;;;;;;;;;;16.63;26.68;101314.19;6184969;23;19936;-59
2023/05/25 04:43:17;;;;;;;;;;;;;;;16.59;26.88;101312.97;6184891;23;19915;-60
2023/05/25 04:45:45;;;;;;;;;;;;;;;16.69;26.91;101301.66;6185164;23;19908;-59
2023/05/25 04:48:11;;;;;;;;;;;;;;;16.71;26.68;101304.97;6184416;23;19948;-60
2023/05/25 04:50:39;;;;;;;;;;;;;;;16.78;26.77;101316.66;6184756;23;19931;-58
2023/05/25 04:53:04;;;;;;;;;;;;;;;16.74;26.74;101305.41;6187382;23;20314;-59
2023/05/25 04:55:29;;;;;;;;;;;;;;;16.75;27.09;101304.38;6188950;23;19914;-60
2023/05/25 04:57:55;;;;;;;;;;;;;;;16.67;27.33;101309.19;6186316;23;19909;-60
2023/05/25 05:00:20;;;;;;;;;;;;;;;16.70;27.29;101327.75;6185158;23;20302;-60
2023/05/25 05:02:46;;;;;;;;;;;;;;;16.50;27.21;101322.38;6184643;23;20295;-60
2023/05/25 05:05:11;;;;;;;;;;;;;;;16.64;27.41;101329.41;6185257;23;19908;-59
2023/05/25 05:07:37;;;;;;;;;;;;;;;16.70;27.23;101352.97;6185358;23;19952;-58
2023/05/25 05:10:02;;;;;;;;;;;;;;;16.92;26.96;101339.16;6185097;23;19934;-59
2023/05/25 05:12:27;;;;;;;;;;;;;;;16.96;27.00;101321.44;6185074;23;19971;-60
2023/05/25 05:14:54;;;;;;;;;;;;;;;17.13;26.78;101327.19;6185304;23;19916;-60
2023/05/25 05:17:20;;;;;;;;;;;;;;;17.11;26.90;101327.41;6185024;23;19916;-60
2023/05/25 05:19:45;;;;;;;;;;;;;;;17.11;26.81;101332.84;6185200;23;20328;-61
2023/05/25 05:22:12;;;;;;;;;;;;;;;17.03;26.88;101316.78;6185359;23;19932;-61
2023/05/25 05:24:37;;;;;;;;;;;;;;;17.05;26.91;101331.00;6185119;23;20325;-61
2023/05/25 05:27:02;;;;;;;;;;;;;;;17.15;27.01;101339.50;6185064;23;19912;-60
2023/05/25 05:29:28;;;;;;;;;;;;;;;17.32;26.55;101339.81;6184890;23;19919;-60
2023/05/25 05:31:56;;;;;;;;;;;;;;;17.25;26.55;101368.88;6158112;23;19908;-59
2023/05/25 05:34:21;;;;;;;;;;;;;;;17.33;26.72;101354.25;6184735;23;20283;-60
2023/05/25 05:36:47;;;;;;;;;;;;;;;17.45;26.43;101368.78;6184027;23;19917;-59
2023/05/25 05:39:12;;;;;;;;;;;;;;;17.48;26.62;101381.94;6183364;23;19987;-60
2023/05/25 05:41:37;;;;;;;;;;;;;;;17.60;26.24;101409.25;6184739;23;19987;-61
2023/05/25 05:44:03;;;;;;;;;;;;;;;17.48;26.55;101360.22;6184701;23;19916;-62
2023/05/25 05:46:28;;;;;;;;;;;;;;;17.36;26.53;101351.91;6184698;23;20058;-59
2023/05/25 05:48:53;;;;;;;;;;;;;;;17.13;26.52;101352.44;6184747;23;19912;-63
2023/05/25 05:51:19;;;;;;;;;;;;;;;16.73;26.72;101328.13;6184902;23;19930;-63
2023/05/25 05:53:44;;;;;;;;;;;;;;;17.23;26.99;101341.13;6185102;23;19908;-61
2023/05/25 05:56:15;;;;;;;;;;;;;;;17.13;26.50;101363.31;6159491;23;19909;-63
2023/05/25 05:58:41;;;;;;;;;;;;;;;17.27;26.45;101339.63;6185081;23;19938;-62
2023/05/25 06:01:07;;;;;;;;;;;;;;;17.18;26.15;101344.50;6186510;23;19919;-63
2023/05/25 06:03:33;;;;;;;;;;;;;;;17.14;26.05;101361.41;6186876;23;19998;-62
2023/05/25 06:05:58;;;;;;;;;;;;;;;17.30;25.97;101360.94;6186964;23;19908;-62
2023/05/25 06:08:24;;;;;;;;;;;;;;;17.35;25.89;101344.81;6186738;23;20217;-62
2023/05/25 06:10:49;;;;;;;;;;;;;;;17.61;26.10;101351.16;6186640;23;19951;-62
2023/05/25 06:13:15;;;;;;;;;;;;;;;17.73;25.64;101356.72;6186461;23;20310;-62
2023/05/25 06:15:40;;;;;;;;;;;;;;;17.55;25.50;101371.03;6186557;23;19915;-63
2023/05/25 06:18:06;;;;;;;;;;;;;;;17.44;25.65;101369.00;6186453;23;19915;-64
2023/05/25 06:20:31;;;;;;;;;;;;;;;17.61;25.75;101349.28;6186465;23;19964;-64
2023/05/25 06:22:56;;;;;;;;;;;;;;;17.71;25.53;101354.22;6160037;23;19908;-64
2023/05/25 06:25:22;;;;;;;;;;;;;;;17.72;25.47;101353.19;6186872;23;19912;-64
2023/05/25 06:27:48;;;;;;;;;;;;;;;17.90;24.99;101349.72;6186656;23;19922;-63
2023/05/25 06:30:13;;;;;;;;;;;;;;;17.98;24.98;101365.78;6186584;23;19990;-63
2023/05/25 06:32:39;;;;;;;;;;;;;;;17.80;25.07;101381.97;6186450;23;19920;-63
2023/05/25 06:35:04;;;;;;;;;;;;;;;18.03;24.42;101399.59;6186146;23;19978;-64
2023/05/25 06:37:34;;;;;;;;;;;;;;;17.95;24.74;101390.66;6186206;23;19920;-62
2023/05/25 06:40:00;;;;;;;;;;;;;;;18.26;24.41;101399.84;6186414;23;19916;-61
2023/05/25 06:42:25;;;;;;;;;;;;;;;17.89;24.19;101428.78;6185828;23;19996;-61
2023/05/25 06:44:51;;;;;;;;;;;;;;;18.27;24.40;101400.69;6186175;23;19948;-61
2023/05/25 06:47:16;;;;;;;;;;;;;;;18.06;23.98;101400.00;6186527;23;19908;-61
2023/05/25 06:49:41;;;;;;;;;;;;;;;18.20;23.44;101398.00;6186365;23;19916;-61
2023/05/25 06:52:07;;;;;;;;;;;;;;;18.11;23.46;101402.91;6186490;23;19912;-61
2023/05/25 06:54:32;;;;;;;;;;;;;;;18.42;23.25;101417.47;6186105;23;19913;-60
2023/05/25 06:56:57;;;;;;;;;;;;;;;18.43;23.01;101415.63;6186186;23;19915;-59
2023/05/25 06:59:23;;;;;;;;;;;;;;;18.54;23.00;101414.88;6186219;23;19909;-59
2023/05/25 07:01:48;;;;;;;;;;;;;;;18.51;22.64;101408.00;6185749;23;19914;-61
2023/05/25 07:04:13;;;;;;;;;;;;;;;18.44;22.55;101423.53;6185962;23;19915;-61
2023/05/25 07:06:39;;;;;;;;;;;;;;;18.51;23.01;101421.59;6186140;23;19912;-61
2023/05/25 07:09:04;;;;;;;;;;;;;;;18.67;23.07;101417.47;6185781;23;19919;-61
2023/05/25 07:11:29;;;;;;;;;;;;;;;18.56;22.52;101418.22;6185803;23;19908;-62
2023/05/25 07:13:54;;;;;;;;;;;;;;;18.56;22.68;101426.38;6186265;23;19943;-63
2023/05/25 07:16:20;;;;;;;;;;;;;;;18.56;22.39;101429.09;6185882;23;20214;-62
2023/05/25 07:18:45;;;;;;;;;;;;;;;18.64;22.32;101420.63;6186103;23;19970;-61
2023/05/25 07:21:10;;;;;;;;;;;;;;;18.58;22.06;101427.81;6185417;23;19908;-61
2023/05/25 07:23:37;;;;;;;;;;;;;;;18.71;22.40;101412.41;6185720;23;19915;-62
2023/05/25 07:26:02;;;;;;;;;;;;;;;18.55;22.63;101428.28;6185894;23;19912;-62
2023/05/25 07:28:28;;;;;;;;;;;;;;;18.53;22.38;101419.47;6185766;23;19912;-62
2023/05/25 07:30:53;;;;;;;;;;;;;;;18.70;22.44;101433.38;6185908;23;19915;-62
2023/05/25 07:33:18;;;;;;;;;;;;;;;18.70;22.38;101427.06;6185541;23;19994;-62
2023/05/25 07:35:43;;;;;;;;;;;;;;;18.66;22.54;101434.03;6185333;23;19919;-63
2023/05/25 07:38:09;;;;;;;;;;;;;;;18.51;22.58;101443.34;6184199;23;19920;-62
2023/05/25 07:40:34;;;;;;;;;;;;;;;18.73;22.71;101429.34;6183797;23;20318;-62
2023/05/25 07:43:00;;;;;;;;;;;;;;;18.56;22.53;101443.53;6184580;23;19908;-62
2023/05/25 07:45:25;;;;;;;;;;;;;;;18.67;22.38;101444.69;6184273;23;19949;-62
2023/05/25 07:47:50;;;;;;;;;;;;;;;18.70;22.22;101430.66;6184200;23;19919;-62
2023/05/25 07:50:16;;;;;;;;;;;;;;;18.61;22.27;101442.00;6184080;23;19914;-62
2023/05/25 07:52:41;;;;;;;;;;;;;;;18.74;21.59;101441.91;6184531;23;19908;-62
2023/05/25 07:55:07;;;;;;;;;;;;;;;18.66;21.98;101448.44;6185652;23;19908;-62
2023/05/25 07:57:33;;;;;;;;;;;;;;;18.93;22.07;101457.22;6185597;23;19918;-62
2023/05/25 07:59:58;;;;;;;;;;;;;;;19.24;21.89;101447.28;6185488;23;20269;-62
2023/05/25 08:02:24;;;;;;;;;;;;;;;19.20;21.87;101456.94;6185245;23;20226;-62
2023/05/25 08:04:51;;;;;;;;;;;;;;;19.42;21.82;101446.41;6185501;23;19908;-62
2023/05/25 08:07:18;;;;;;;;;;;;;;;19.33;20.91;101475.03;6158885;23;19915;-62
2023/05/25 08:09:43;;;;;;;;;;;;;;;19.36;21.13;101465.59;6185372;23;19919;-62
2023/05/25 08:12:08;;;;;;;;;;;;;;;19.24;21.68;101474.50;6185238;23;20284;-62
2023/05/25 08:14:34;;;;;;;;;;;;;;;19.24;21.48;101479.97;6185388;23;19908;-62
2023/05/25 08:16:59;;;;;;;;;;;;;;;19.58;21.54;101469.50;6185239;23;20211;-62
2023/05/25 08:19:24;;;;;;;;;;;;;;;19.83;21.33;101468.56;6185070;23;20314;-62
2023/05/25 08:21:50;;;;;;;;;;;;;;;19.82;21.02;101472.38;6185084;23;19908;-62
2023/05/25 08:24:15;;;;;;;;;;;;;;;19.89;20.81;101463.03;6185439;23;19915;-62
2023/05/25 08:26:42;;;;;;;;;;;;;;;19.77;20.84;101472.22;6185833;23;19908;-61
2023/05/25 08:29:07;;;;;;;;;;;;;;;19.73;20.81;101469.13;6186031;23;19935;-63
2023/05/25 08:31:32;;;;;;;;;;;;;;;19.80;21.03;101458.97;6186646;23;19912;-62
2023/05/25 08:33:59;;;;;;;;;;;;;;;19.96;20.91;101478.47;6185118;23;20313;-62
2023/05/25 08:36:25;;;;;;;;;;;;;;;19.95;20.66;101460.44;6185584;23;20032;-62
2023/05/25 08:38:50;;;;;;;;;;;;;;;19.80;19.75;101491.69;6158061;23;20298;-63
2023/05/25 08:41:16;;;;;;;;;;;;;;;20.11;19.95;101478.84;6159419;23;20277;-62
2023/05/25 08:43:41;;;;;;;;;;;;;;;20.25;19.97;101472.16;6159010;23;19979;-63
2023/05/25 08:46:07;;;;;;;;;;;;;;;20.52;19.93;101455.34;6185191;23;19919;-63
2023/05/25 08:48:36;;;;;;;;;;;;;;;20.58;19.41;101454.41;6185268;23;20007;-62
2023/05/25 08:51:04;;;;;;;;;;;;;;;20.31;18.93;101471.22;6185087;23;19908;-63
2023/05/25 08:53:32;;;;;;;;;;;;;;;20.36;19.84;101458.78;6185154;23;19914;-63
2023/05/25 08:55:58;;;;;;;;;;;;;;;20.41;19.63;101442.50;6184501;23;19908;-62
2023/05/25 08:58:29;;;;;;;;;;;;;;;20.52;19.91;101441.69;6184491;23;19908;-62
2023/05/25 09:01:00;;;;;;;;;;;;;;;20.35;19.47;101441.56;6184668;23;19924;-62
2023/05/25 09:03:25;;;;;;;;;;;;;;;20.34;19.66;101452.69;6184967;23;19908;-62
2023/05/25 09:05:51;;;;;;;;;;;;;;;20.57;19.05;101428.19;6185140;23;19942;-62
2023/05/25 09:08:17;;;;;;;;;;;;;;;20.47;19.25;101452.50;6184799;23;19912;-62
2023/05/25 09:10:43;;;;;;;;;;;;;;;20.50;19.38;101438.38;6184783;23;19912;-62
2023/05/25 09:13:08;;;;;;;;;;;;;;;20.51;19.69;101448.25;6184495;23;19909;-63
2023/05/25 09:15:34;;;;;;;;;;;;;;;20.91;19.75;101444.81;6184432;23;19967;-63
2023/05/25 09:17:59;;;;;;;;;;;;;;;20.99;19.28;101476.41;6185292;23;20360;-62
2023/05/25 09:20:30;;;;;;;;;;;;;;;20.90;19.22;101454.09;6185253;23;19936;-62
2023/05/25 09:22:56;;;;;;;;;;;;;;;20.68;19.01;101441.03;6185281;23;19912;-63
2023/05/25 09:25:24;;;;;;;;;;;;;;;20.63;18.51;101483.75;6184776;23;19983;-62
2023/05/25 09:27:50;;;;;;;;;;;;;;;20.86;19.27;101448.28;6185063;23;20318;-62
2023/05/25 09:30:15;;;;;;;;;;;;;;;20.72;19.24;101454.22;6184944;23;19919;-62
2023/05/25 09:32:41;;;;;;;;;;;;;;;20.31;18.53;101468.47;6185230;23;19955;-62
2023/05/25 09:35:06;;;;;;;;;;;;;;;20.27;18.35;101450.91;6185215;23;19915;-63
2023/05/25 09:37:32;;;;;;;;;;;;;;;20.29;18.46;101453.41;6185656;23;19928;-62
2023/05/25 09:39:57;;;;;;;;;;;;;;;20.48;18.76;101443.25;6186084;23;20322;-62
2023/05/25 09:42:22;;;;;;;;;;;;;;;20.53;18.41;101467.09;6159718;23;19912;-62
2023/05/25 09:44:48;;;;;;;;;;;;;;;20.35;18.44;101441.56;6186089;23;19909;-62
2023/05/25 09:47:15;;;;;;;;;;;;;;;20.73;18.50;101436.75;6186029;23;20326;-62
2023/05/25 09:49:41;;;;;;;;;;;;;;;21.17;18.32;101446.22;6186382;23;20005;-62
2023/05/25 09:52:07;;;;;;;;;;;;;;;21.34;18.25;101446.31;6186496;23;19959;-62
2023/05/25 09:54:32;;;;;;;;;;;;;;;20.96;18.00;101449.56;6186381;23;19958;-63
2023/05/25 09:56:58;;;;;;;;;;;;;;;21.02;17.92;101451.34;6186367;23;19909;-62
2023/05/25 09:59:24;;;;;;;;;;;;;;;21.22;18.20;101448.22;6186484;23;19909;-62
2023/05/25 10:01:50;;;;;;;;;;;;;;;21.73;17.97;101445.72;6185982;23;19941;-62
2023/05/25 10:04:15;;;;;;;;;;;;;;;22.06;17.83;101444.97;6186285;23;19915;-62
2023/05/25 10:06:41;;;;;;;;;;;;;;;22.48;17.66;101457.47;6186652;23;19908;-62
2023/05/25 10:09:07;;;;;;;;;;;;;;;22.77;16.99;101470.00;6186516;23;20016;-62
2023/05/25 10:11:37;;;;;;;;;;;;;;;22.84;16.80;101456.09;6159803;23;19915;-63
2023/05/25 10:14:05;;;;;;;;;;;;;;;22.67;16.83;101461.59;6186326;23;19919;-62
2023/05/25 10:16:31;;;;;;;;;;;;;;;22.51;16.93;101462.44;6186103;23;19909;-62
2023/05/25 10:18:59;;;;;;;;;;;;;;;22.77;16.90;101458.19;6186237;23;19908;-63
2023/05/25 10:21:27;;;;;;;;;;;;;;;22.52;17.00;101453.97;6186298;23;19908;-62
2023/05/25 10:23:56;;;;;;;;;;;;;;;22.93;16.69;101462.00;6186105;23;19961;-62
2023/05/25 10:26:24;;;;;;;;;;;;;;;23.12;16.97;101468.88;6186210;23;19915;-63
2023/05/25 10:28:54;;;;;;;;;;;;;;;23.58;16.97;101442.03;6186310;23;19913;-63
2023/05/25 10:31:20;;;;;;;;;;;;;;;23.52;15.97;101454.03;6186066;23;19908;-63
2023/05/25 10:33:45;;;;;;;;;;;;;;;23.96;16.04;101450.44;6186058;23;19908;-62
2023/05/25 10:36:13;;;;;;;;;;;;;;;24.03;16.10;101445.53;6185741;23;19923;-63
2023/05/25 10:38:39;;;;;;;;;;;;;;;24.38;15.59;101446.13;6185081;23;19962;-62
2023/05/25 10:41:05;;;;;;;;;;;;;;;24.82;16.44;101457.72;6186152;23;19939;-63
2023/05/25 10:43:31;;;;;;;;;;;;;;;25.30;16.44;101433.81;6186135;23;20300;-63
2023/05/25 10:45:56;;;;;;;;;;;;;;;25.21;15.42;101451.06;6186274;23;19916;-70
2023/05/25 10:48:22;;;;;;;;;;;;;;;25.29;15.57;101431.34;6185812;23;20223;-62
2023/05/25 10:50:50;;;;;;;;;;;;;;;26.01;17.02;101426.03;6186392;23;19908;-63
2023/05/25 10:53:16;;;;;;;;;;;;;;;26.34;16.32;101426.59;6186379;23;19915;-63
2023/05/25 10:55:42;;;;;;;;;;;;;;;26.32;15.81;101448.91;6186233;23;19909;-63
2023/05/25 10:58:09;;;;;;;;;;;;;;;26.05;15.56;101452.72;6186116;23;20218;-62
2023/05/25 11:00:34;;;;;;;;;;;;;;;26.19;15.86;101460.47;6186216;23;19946;-62
2023/05/25 11:03:00;;;;;;;;;;;;;;;26.37;15.10;101459.91;6186142;23;20313;-63
2023/05/25 11:05:25;;;;;;;;;;;;;;;26.53;15.11;101466.25;6185788;23;19909;-63
2023/05/25 11:07:51;;;;;;;;;;;;;;;26.83;15.05;101470.09;6185990;23;20281;-63
2023/05/25 11:10:17;;;;;;;;;;;;;;;27.15;15.36;101461.44;6186158;23;19908;-64
2023/05/25 11:12:45;;;;;;;;;;;;;;;26.87;15.12;101467.59;6186084;23;19916;-63
2023/05/25 11:15:13;;;;;;;;;;;;;;;27.10;14.23;101457.88;6185736;23;19916;-63
2023/05/25 11:18:05;;;;;;;;;;;;;;;27.11;14.93;101468.63;6185653;23;19923;-63
2023/05/25 11:20:30;;;;;;;;;;;;;;;27.06;15.34;101467.84;6178218;23;19909;-62
2023/05/25 11:22:56;;;;;;;;;;;;;;;27.44;14.28;101466.34;6185742;23;20422;-62
2023/05/25 11:25:35;;;;;;;;;;;;;;;27.30;15.28;101457.03;6185747;23;20013;-63
2023/05/25 11:28:05;;;;;;;;;;;;;;;27.57;13.57;101462.97;6185911;23;19913;-62
2023/05/25 11:30:30;;;;;;;;;;;;;;;28.13;13.91;101463.75;6185648;23;20017;-63
2023/05/25 11:32:58;;;;;;;;;;;;;;;28.36;13.49;101467.69;6185342;23;20371;-62
2023/05/25 11:35:25;;;;;;;;;;;;;;;28.34;13.15;101465.25;6185331;23;19913;-63
2023/05/25 11:37:52;;;;;;;;;;;;;;;28.44;13.11;101469.03;6184384;23;19916;-63
2023/05/25 11:40:21;;;;;;;;;;;;;;;28.80;13.22;101454.91;6185406;23;19916;-64
2023/05/25 11:42:47;;;;;;;;;;;;;;;29.05;13.22;101432.50;6185131;23;19912;-64
2023/05/25 11:45:15;;;;;;;;;;;;;;;29.34;13.13;101431.59;6185051;23;19919;-64
2023/05/25 11:47:40;;;;;;;;;;;;;;;29.60;13.43;101428.47;6185288;23;19940;-64
2023/05/25 11:50:06;;;;;;;;;;;;;;;29.78;12.57;101444.31;6185978;23;19915;-63
2023/05/25 11:52:31;;;;;;;;;;;;;;;29.95;12.56;101427.16;6185881;23;20249;-63
2023/05/25 11:54:57;;;;;;;;;;;;;;;29.95;13.18;101415.25;6187037;23;19909;-63
2023/05/25 11:57:23;;;;;;;;;;;;;;;30.28;12.71;101414.13;6185485;23;20001;-64
2023/05/25 11:59:53;;;;;;;;;;;;;;;29.77;12.20;101437.09;6185651;23;19908;-64
2023/05/25 12:02:18;;;;;;;;;;;;;;;29.50;12.35;101435.00;6185803;23;19979;-64
2023/05/25 12:04:57;;;;;;;;;;;;;;;29.53;12.81;101432.44;6185227;23;20302;-64
2023/05/25 12:07:24;;;;;;;;;;;;;;;30.12;12.68;101418.28;6185216;23;19920;-65
2023/05/25 12:09:50;;;;;;;;;;;;;;;30.49;12.69;101428.47;6185276;23;19919;-64
2023/05/25 12:12:15;;;;;;;;;;;;;;;30.92;12.30;101421.03;6185337;23;20178;-63
2023/05/25 12:14:50;;;;;;;;;;;;;;;31.46;11.62;101408.22;6185125;23;19991;-65
2023/05/25 12:17:16;;;;;;;;;;;;;;;31.36;10.65;101425.13;6185125;23;19908;-64
2023/05/25 12:19:42;;;;;;;;;;;;;;;31.49;11.63;101409.59;6185241;23;19916;-63
2023/05/25 12:22:08;;;;;;;;;;;;;;;32.11;10.78;101415.31;6185594;23;20219;-64
2023/05/25 12:24:33;;;;;;;;;;;;;;;32.29;11.18;101390.44;6184956;23;19916;-64
2023/05/25 12:27:00;;;;;;;;;;;;;;;32.55;11.34;101387.78;6184969;23;19908;-64
2023/05/25 12:29:26;;;;;;;;;;;;;;;32.05;10.86;101374.09;6185564;23;20464;-64